METAR AND TAF INFORMATION
METAR FOR LOXZ
ADDS - METARS form results

(2356 UTC 20 September 2020)
Data provider http://aviationweather.gov/metar/data/
 
METAR text: LOXZ 202350Z VRB02KT 15KM FEW050SC 10/09 Q1019
Conditions at: LOXZ (ZELTWEG (MIL) , AT) observed 2350 UTC 20 September 2020
Temperature: 10.0°C (50°F)
Dewpoint: 9.0°C (48°F) [RH = 93%]
Pressure (altimeter): 30.09 inches Hg (1019.0 mb)
Winds: variable direction winds at 2 MPH (2 knots; 1.0 m/s)
Visibility: 9 miles (15 km)
Ceiling: unknown
Clouds: missing
Weather: no significant weather observed at this time

 AIRPORT MAP

 RUNWAY INFORMATION
Runway 08 Runway length 9022 ft Runway width 197 ft
Runway elevation 2220 ft Runway displaced threshold 492 ft Runway heading 81
Runway 26 Runway length 9022 ft Runway width 197 ft
Runway elevation 2220 ft Runway displaced threshold 820 ft Runway heading 261
Runway 08L Runway length 3609 ft Runway width 131 ft
Runway elevation 0 ft Runway displaced threshold 0 ft Runway heading 81
Runway 26R Runway length 3609 ft Runway width 131 ft
Runway elevation 0 ft Runway displaced threshold 328 ft Runway heading 261

 AIRPORT FREQUENCIES
Type APP Name RADAR Frequency 129.475 MHZ
Type TWR Name TWR Frequency 118.7 MHZ

 AIRPORT NEAR NAVIGATION AIDS
Type NDB Name Zeltweg Frequency 418 KHZ